ソチ の空港の天気 - METARとTAF

ソチ空港 ( URSS / AER ) - ロシア ソチ
飛行場実況気象(Metar)
観測時間02/17 17:30 MSK (02/17 14:30 UTC)
風向・風速南東 3m/s
視程10km以上
天気現象
全天を覆う雲 雲底高度 760m
気温7℃
湿度87%
気圧1024hPa
METARURSS 171430Z 13003MPS 9999 OVC025CB 07/05 Q1024 R02/290060 R06/290060 NOSIG RMK R06/12004MPS MT OBSC QFE767
過去の天気等 Google飛行場航空写真 Wunderground天気予報

過去48時間のMETAR

飛行場予報(TAF)
発表時間: 2/17 16:56 MSK (2/17 13:56 UTC)
予報対象時間: 17日18時 MSK ~ 18日18時 MSK
風向・風速東 4m/s
視程5000m
天気現象弱いしゅう雨
全天の8割程度の積乱雲 雲底高度 910m
全天を覆う雲 雲底高度 3050m
17日18時 MSK ~ 18日10時 MSK に一時的に
風向・風速不定 1m/s
全天の4割程度の雲 雲底高度 340m
全天の8割程度の積乱雲 雲底高度 910m
全天を覆う雲 雲底高度 3050m
18日10時 MSK ~ 18日11時 MSK に徐々に
風向・風速南東 5m/s
全天の8割程度の雲 雲底高度 460m
全天の8割程度の積乱雲 雲底高度 610m
全天を覆う雲 雲底高度 3050m
18日11時 MSK ~ 18日13時 MSK に一時的に
風向・風速不定 1m/s
18日13時 MSK ~ 18日14時 MSK に徐々に
風向・風速西 5m/s
TAF URSS 171356Z 1715/1815 09004MPS 5000 -SHRA BKN030CB OVC100
TEMPO 1715/1807 VRB01MPS SCT011 BKN030CB OVC100
BECMG 1807/1808 14005MPS BKN015 BKN020CB OVC100
TEMPO 1808/1810 VRB01MPS
BECMG 1810/1811 28005MPS